createdAt,value
2023-04-02T00:00:10.600Z,93676.00
2023-04-02T00:01:10.564Z,93677.00
2023-04-02T00:02:10.625Z,93677.00
2023-04-02T00:03:10.661Z,93677.00
2023-04-02T00:04:10.723Z,93679.00
2023-04-02T00:05:10.590Z,93679.00
2023-04-02T00:06:10.603Z,93679.00
2023-04-02T00:07:10.621Z,93679.00
2023-04-02T00:08:10.612Z,93679.00
2023-04-02T00:09:10.619Z,93681.00
2023-04-02T00:10:10.639Z,93681.00
2023-04-02T00:11:10.644Z,93683.00
2023-04-02T00:12:10.639Z,93679.00
2023-04-02T00:13:10.656Z,93681.00
2023-04-02T00:14:10.677Z,93679.00
2023-04-02T00:15:10.671Z,93679.00
2023-04-02T00:16:10.723Z,93679.00
2023-04-02T00:17:10.703Z,93677.00
2023-04-02T00:18:10.718Z,93676.00
2023-04-02T00:19:10.725Z,93674.00
2023-04-02T00:20:10.751Z,93674.00
2023-04-02T00:21:10.751Z,93670.00
2023-04-02T00:22:10.743Z,93676.00
2023-04-02T00:23:10.774Z,93676.00
2023-04-02T00:24:10.788Z,93670.00
2023-04-02T00:25:10.777Z,93670.00
2023-04-02T00:26:10.797Z,93668.00
2023-04-02T00:27:10.814Z,93670.00
2023-04-02T00:28:10.825Z,93670.00
2023-04-02T00:29:10.826Z,93670.00
2023-04-02T00:30:10.845Z,93672.00
2023-04-02T00:31:10.875Z,93672.00
2023-04-02T00:32:10.884Z,93674.00
2023-04-02T00:33:10.907Z,93674.00
2023-04-02T00:34:10.879Z,93676.00
2023-04-02T00:35:10.922Z,93674.00
2023-04-02T00:36:10.943Z,93674.00
2023-04-02T00:37:10.934Z,93676.00
2023-04-02T00:38:10.929Z,93676.00
2023-04-02T00:39:10.942Z,93677.00
2023-04-02T00:40:10.967Z,93677.00
2023-04-02T00:41:10.977Z,93677.00
2023-04-02T00:42:10.979Z,93679.00
2023-04-02T00:43:10.978Z,93677.00
2023-04-02T00:44:10.992Z,93679.00
2023-04-02T00:45:10.990Z,93677.00
2023-04-02T00:46:11.128Z,93679.00
2023-04-02T00:47:11.017Z,93679.00
2023-04-02T00:48:11.065Z,93679.00
2023-04-02T00:49:11.061Z,93681.00
2023-04-02T00:50:11.075Z,93681.00
2023-04-02T00:51:11.075Z,93683.00
2023-04-02T00:52:11.089Z,93683.00
2023-04-02T00:53:11.128Z,93685.00
2023-04-02T00:54:11.129Z,93683.00
2023-04-02T00:55:11.125Z,93685.00
2023-04-02T00:56:11.153Z,93685.00
2023-04-02T00:57:11.185Z,93685.00
2023-04-02T00:58:11.203Z,93687.00
2023-04-02T00:59:11.195Z,93683.00
2023-04-02T01:00:11.210Z,93685.00
2023-04-02T01:01:11.255Z,93685.00
2023-04-02T01:02:11.230Z,93685.00
2023-04-02T01:03:11.386Z,93683.00
2023-04-02T01:04:11.238Z,93683.00
2023-04-02T01:05:11.231Z,93683.00
2023-04-02T01:06:11.263Z,93681.00
2023-04-02T01:07:11.278Z,93683.00
2023-04-02T01:08:11.315Z,93681.00
2023-04-02T01:09:11.297Z,93683.00
2023-04-02T01:10:11.335Z,93683.00
2023-04-02T01:11:11.321Z,93685.00
2023-04-02T01:12:11.349Z,93685.00
2023-04-02T01:13:11.356Z,93687.00
2023-04-02T01:14:11.384Z,93687.00
2023-04-02T01:15:11.365Z,93687.00
2023-04-02T01:16:11.450Z,93689.00
2023-04-02T01:17:11.397Z,93691.00
2023-04-02T01:18:11.380Z,93685.00
2023-04-02T01:19:11.391Z,93691.00
2023-04-02T01:20:11.473Z,93687.00
2023-04-02T01:21:11.418Z,93689.00
2023-04-02T01:22:11.431Z,93689.00
2023-04-02T01:23:11.446Z,93687.00
2023-04-02T01:24:11.466Z,93687.00
2023-04-02T01:25:11.471Z,93687.00
2023-04-02T01:26:11.483Z,93687.00
2023-04-02T01:27:11.490Z,93685.00
2023-04-02T01:28:11.496Z,93687.00
2023-04-02T01:29:11.515Z,93687.00
2023-04-02T01:30:11.530Z,93687.00
2023-04-02T01:31:11.570Z,93687.00
2023-04-02T01:32:11.556Z,93687.00
2023-04-02T01:33:11.559Z,93687.00
2023-04-02T01:34:11.567Z,93685.00
2023-04-02T01:35:11.581Z,93683.00
2023-04-02T01:36:11.664Z,93685.00
2023-04-02T01:37:11.621Z,93689.00
2023-04-02T01:38:11.675Z,93691.00
2023-04-02T01:39:11.647Z,93695.00
2023-04-02T01:40:11.661Z,93697.00
2023-04-02T01:41:11.677Z,93697.00
2023-04-02T01:42:11.733Z,93701.00
2023-04-02T01:43:11.730Z,93703.00
2023-04-02T01:44:11.749Z,93705.00
2023-04-02T01:45:11.758Z,93707.00
2023-04-02T01:46:11.798Z,93705.00
2023-04-02T01:47:11.783Z,93705.00
2023-04-02T01:48:11.813Z,93705.00
2023-04-02T01:49:11.808Z,93709.00
2023-04-02T01:50:11.835Z,93707.00
2023-04-02T01:51:11.850Z,93711.00
2023-04-02T01:52:11.858Z,93709.00
2023-04-02T01:53:11.887Z,93711.00
2023-04-02T01:54:11.887Z,93713.00
2023-04-02T01:55:11.905Z,93715.00
2023-04-02T01:56:11.915Z,93713.00
2023-04-02T01:57:11.986Z,93715.00
2023-04-02T01:58:11.967Z,93719.00
2023-04-02T01:59:11.972Z,93717.00
2023-04-02T02:00:11.985Z,93719.00
2023-04-02T02:01:12.056Z,93719.00
2023-04-02T02:02:12.047Z,93721.00
2023-04-02T02:03:12.116Z,93723.00
2023-04-02T02:04:12.059Z,93725.00
2023-04-02T02:05:12.098Z,93727.00
2023-04-02T02:06:12.096Z,93727.00
2023-04-02T02:07:12.130Z,93729.00
2023-04-02T02:08:12.139Z,93729.00
2023-04-02T02:09:12.171Z,93729.00
2023-04-02T02:10:12.170Z,93731.00
2023-04-02T02:11:12.211Z,93734.00
2023-04-02T02:12:12.211Z,93731.00
2023-04-02T02:13:12.258Z,93731.00
2023-04-02T02:14:12.251Z,93731.00
2023-04-02T02:15:12.314Z,93732.00
2023-04-02T02:16:12.337Z,93731.00
2023-04-02T02:17:12.311Z,93734.00
2023-04-02T02:18:12.332Z,93734.00
2023-04-02T02:19:12.875Z,93734.00
2023-04-02T02:20:12.376Z,93732.00
2023-04-02T02:21:12.382Z,93736.00
2023-04-02T02:22:12.408Z,93734.00
2023-04-02T02:23:12.420Z,93732.00
2023-04-02T02:24:12.452Z,93732.00
2023-04-02T02:25:12.442Z,93734.00
2023-04-02T02:26:12.446Z,93731.00
2023-04-02T02:27:12.463Z,93734.00
2023-04-02T02:28:12.489Z,93738.00
2023-04-02T02:29:12.546Z,93738.00
2023-04-02T02:30:12.523Z,93740.00
2023-04-02T02:31:12.562Z,93740.00
2023-04-02T02:32:12.641Z,93740.00
2023-04-02T02:33:12.570Z,93738.00
2023-04-02T02:34:12.601Z,93736.00
2023-04-02T02:35:12.596Z,93738.00
2023-04-02T02:36:12.632Z,93742.00
2023-04-02T02:37:12.635Z,93744.00
2023-04-02T02:38:12.648Z,93744.00
2023-04-02T02:39:12.656Z,93746.00
2023-04-02T02:40:12.662Z,93746.00
2023-04-02T02:41:12.685Z,93744.00
2023-04-02T02:42:12.705Z,93746.00
2023-04-02T02:43:12.695Z,93746.00
2023-04-02T02:44:12.747Z,93748.00
2023-04-02T02:45:12.731Z,93748.00
2023-04-02T02:46:12.810Z,93748.00
2023-04-02T02:47:12.745Z,93748.00
2023-04-02T02:48:12.792Z,93748.00
2023-04-02T02:49:12.785Z,93748.00
2023-04-02T02:50:12.820Z,93748.00
2023-04-02T02:51:14.453Z,93748.00
2023-04-02T02:52:12.820Z,93748.00
2023-04-02T02:53:12.827Z,93748.00
2023-04-02T02:54:12.830Z,93746.00
2023-04-02T02:55:12.858Z,93744.00
2023-04-02T02:56:12.870Z,93744.00
2023-04-02T02:57:12.910Z,93744.00
2023-04-02T02:58:12.887Z,93744.00
2023-04-02T02:59:12.901Z,93744.00
2023-04-02T03:00:12.945Z,93744.00
2023-04-02T03:01:12.936Z,93744.00
2023-04-02T03:02:12.951Z,93746.00
2023-04-02T03:03:13.085Z,93744.00
2023-04-02T03:04:13.014Z,93746.00
2023-04-02T03:05:13.016Z,93748.00
2023-04-02T03:06:13.001Z,93750.00
2023-04-02T03:07:13.026Z,93754.00
2023-04-02T03:08:13.041Z,93760.00
2023-04-02T03:09:13.063Z,93764.00
2023-04-02T03:10:13.120Z,93766.00
2023-04-02T03:11:13.110Z,93766.00
2023-04-02T03:12:13.108Z,93768.00
2023-04-02T03:13:13.124Z,93772.00
2023-04-02T03:14:13.132Z,93774.00
2023-04-02T03:15:13.174Z,93776.00
2023-04-02T03:16:13.206Z,93774.00
2023-04-02T03:17:13.206Z,93778.00
2023-04-02T03:18:13.215Z,93778.00
2023-04-02T03:19:13.212Z,93778.00
2023-04-02T03:20:13.235Z,93779.00
2023-04-02T03:21:13.257Z,93783.00
2023-04-02T03:22:13.268Z,93781.00
2023-04-02T03:23:13.265Z,93785.00
2023-04-02T03:24:13.301Z,93783.00
2023-04-02T03:25:13.290Z,93783.00
2023-04-02T03:26:13.298Z,93783.00
2023-04-02T03:27:13.320Z,93787.00
2023-04-02T03:28:13.330Z,93783.00
2023-04-02T03:29:13.341Z,93781.00
2023-04-02T03:30:13.359Z,93783.00
2023-04-02T03:31:13.440Z,93785.00
2023-04-02T03:32:13.393Z,93781.00
2023-04-02T03:33:13.394Z,93781.00
2023-04-02T03:34:13.404Z,93785.00
2023-04-02T03:35:13.447Z,93785.00
2023-04-02T03:36:13.512Z,93787.00
2023-04-02T03:37:13.470Z,93789.00
2023-04-02T03:38:13.473Z,93791.00
2023-04-02T03:39:13.505Z,93793.00
2023-04-02T03:40:13.517Z,93793.00
2023-04-02T03:41:13.538Z,93793.00
2023-04-02T03:42:13.552Z,93795.00
2023-04-02T03:43:13.561Z,93795.00
2023-04-02T03:44:13.571Z,93795.00
2023-04-02T03:45:13.594Z,93795.00
2023-04-02T03:46:13.594Z,93799.00
2023-04-02T03:47:13.624Z,93799.00
2023-04-02T03:48:13.655Z,93803.00
2023-04-02T03:49:13.675Z,93805.00
2023-04-02T03:50:13.715Z,93805.00
2023-04-02T03:51:13.731Z,93807.00
2023-04-02T03:52:13.710Z,93809.00
2023-04-02T03:53:13.744Z,93811.00
2023-04-02T03:54:13.757Z,93815.00
2023-04-02T03:55:13.764Z,93817.00
2023-04-02T03:56:13.784Z,93817.00
2023-04-02T03:57:13.870Z,93819.00
2023-04-02T03:58:13.817Z,93821.00
2023-04-02T03:59:13.853Z,93823.00
2023-04-02T04:00:13.909Z,93821.00
2023-04-02T04:01:13.890Z,93823.00
2023-04-02T04:02:13.935Z,93823.00
2023-04-02T04:03:13.995Z,93825.00
2023-04-02T04:04:13.997Z,93826.00
2023-04-02T04:05:13.941Z,93826.00
2023-04-02T04:06:13.964Z,93828.00
2023-04-02T04:07:13.986Z,93823.00
2023-04-02T04:08:14.026Z,93826.00
2023-04-02T04:09:14.008Z,93823.00
2023-04-02T04:10:14.042Z,93823.00
2023-04-02T04:11:14.076Z,93821.00
2023-04-02T04:12:14.125Z,93823.00
2023-04-02T04:13:14.088Z,93825.00
2023-04-02T04:14:14.114Z,93823.00
2023-04-02T04:15:14.137Z,93823.00
2023-04-02T04:16:14.189Z,93825.00
2023-04-02T04:17:14.192Z,93825.00
2023-04-02T04:18:14.190Z,93826.00
2023-04-02T04:19:14.213Z,93826.00
2023-04-02T04:20:14.247Z,93828.00
2023-04-02T04:21:14.260Z,93830.00
2023-04-02T04:22:14.278Z,93830.00
2023-04-02T04:23:14.295Z,93832.00
2023-04-02T04:24:14.320Z,93832.00
2023-04-02T04:25:14.319Z,93834.00
2023-04-02T04:26:14.352Z,93830.00
2023-04-02T04:27:14.369Z,93834.00
2023-04-02T04:28:14.379Z,93832.00
2023-04-02T04:29:14.404Z,93836.00
2023-04-02T04:30:14.421Z,93834.00
2023-04-02T04:31:14.447Z,93836.00
2023-04-02T04:32:14.596Z,93838.00
2023-04-02T04:33:14.495Z,93842.00
2023-04-02T04:34:14.503Z,93844.00
2023-04-02T04:35:14.506Z,93846.00
2023-04-02T04:36:14.597Z,93848.00
2023-04-02T04:37:14.557Z,93852.00
2023-04-02T04:38:14.587Z,93850.00
2023-04-02T04:39:14.657Z,93852.00
2023-04-02T04:40:14.617Z,93854.00
2023-04-02T04:41:14.658Z,93856.00
2023-04-02T04:42:14.662Z,93858.00
2023-04-02T04:43:14.664Z,93860.00
2023-04-02T04:44:14.683Z,93862.00
2023-04-02T04:45:14.719Z,93862.00
2023-04-02T04:46:14.755Z,93871.00
2023-04-02T04:47:14.735Z,93864.00
2023-04-02T04:48:14.760Z,93864.00
2023-04-02T04:49:14.791Z,93871.00
2023-04-02T04:50:14.798Z,93871.00
2023-04-02T04:51:14.832Z,93871.00
2023-04-02T04:52:14.840Z,93873.00
2023-04-02T04:53:14.872Z,93871.00
2023-04-02T04:54:14.890Z,93873.00
2023-04-02T04:55:15.877Z,93875.00
2023-04-02T04:56:19.119Z,93875.00
2023-04-02T04:57:14.952Z,93881.00
2023-04-02T04:58:14.924Z,93881.00
2023-04-02T04:59:14.901Z,93885.00
2023-04-02T05:00:14.888Z,93887.00
2023-04-02T05:01:14.948Z,93889.00
2023-04-02T05:02:14.878Z,93891.00
2023-04-02T05:03:14.879Z,93893.00
2023-04-02T05:04:14.941Z,93891.00
2023-04-02T05:05:14.859Z,93893.00
2023-04-02T05:06:14.859Z,93897.00
2023-04-02T05:07:14.850Z,93895.00
2023-04-02T05:08:14.832Z,93897.00
2023-04-02T05:09:14.833Z,93897.00
2023-04-02T05:10:14.848Z,93897.00
2023-04-02T05:11:14.828Z,93895.00
2023-04-02T05:12:14.824Z,93899.00
2023-04-02T05:13:14.812Z,93899.00
2023-04-02T05:14:14.804Z,93901.00
2023-04-02T05:15:14.778Z,93905.00
2023-04-02T05:16:14.894Z,93905.00
2023-04-02T05:17:14.786Z,93905.00
2023-04-02T05:18:14.783Z,93905.00
2023-04-02T05:19:14.755Z,93905.00
2023-04-02T05:20:14.757Z,93905.00
2023-04-02T05:21:14.731Z,93905.00
2023-04-02T05:22:14.739Z,93907.00
2023-04-02T05:23:14.746Z,93907.00
2023-04-02T05:24:14.715Z,93907.00
2023-04-02T05:25:14.722Z,93907.00
2023-04-02T05:26:14.725Z,93907.00
2023-04-02T05:27:14.721Z,93909.00
2023-04-02T05:28:14.753Z,93907.00
2023-04-02T05:29:14.790Z,93909.00
2023-04-02T05:30:14.769Z,93909.00
2023-04-02T05:31:14.806Z,93911.00
2023-04-02T05:32:14.829Z,93911.00
2023-04-02T05:33:14.824Z,93913.00
2023-04-02T05:34:14.876Z,93915.00
2023-04-02T05:35:14.864Z,93917.00
2023-04-02T05:36:14.929Z,93917.00
2023-04-02T05:37:14.914Z,93918.00
2023-04-02T05:38:14.926Z,93918.00
2023-04-02T05:39:14.939Z,93918.00
2023-04-02T05:40:14.972Z,93917.00
2023-04-02T05:41:15.000Z,93917.00
2023-04-02T05:42:15.038Z,93917.00
2023-04-02T05:43:15.015Z,93917.00
2023-04-02T05:44:15.037Z,93917.00
2023-04-02T05:45:15.057Z,93918.00
2023-04-02T05:46:15.079Z,93917.00
2023-04-02T05:47:15.130Z,93922.00
2023-04-02T05:48:15.114Z,93920.00
2023-04-02T05:49:15.133Z,93920.00
2023-04-02T05:50:15.181Z,93922.00
2023-04-02T05:51:15.181Z,93922.00
2023-04-02T05:52:15.207Z,93920.00
2023-04-02T05:53:15.208Z,93920.00
2023-04-02T05:54:15.223Z,93924.00
2023-04-02T05:55:15.251Z,93924.00
2023-04-02T05:56:15.267Z,93922.00
2023-04-02T05:57:15.348Z,93924.00
2023-04-02T05:58:34.614Z,93924.00
2023-04-02T05:59:16.312Z,93926.00
2023-04-02T06:00:15.275Z,93926.00
2023-04-02T06:01:15.270Z,93928.00
2023-04-02T06:02:15.291Z,93926.00
2023-04-02T06:03:15.373Z,93930.00
2023-04-02T06:04:15.326Z,93932.00
2023-04-02T06:05:15.246Z,93932.00
2023-04-02T06:06:15.262Z,93932.00
2023-04-02T06:07:15.233Z,93936.00
2023-04-02T06:08:15.273Z,93940.00
2023-04-02T06:09:15.215Z,93940.00
2023-04-02T06:10:15.225Z,93944.00
2023-04-02T06:11:15.229Z,93948.00
2023-04-02T06:12:15.198Z,93946.00
2023-04-02T06:13:15.221Z,93948.00
2023-04-02T06:14:15.195Z,93948.00
2023-04-02T06:15:15.211Z,93950.00
2023-04-02T06:16:15.204Z,93952.00
2023-04-02T06:17:15.163Z,93948.00
2023-04-02T06:18:15.172Z,93952.00
2023-04-02T06:19:15.481Z,93950.00
2023-04-02T06:20:15.146Z,93952.00
2023-04-02T06:21:15.164Z,93950.00
2023-04-02T06:22:15.144Z,93954.00
2023-04-02T06:23:15.124Z,93954.00
2023-04-02T06:24:15.126Z,93958.00
2023-04-02T06:25:15.114Z,93956.00
2023-04-02T06:26:15.115Z,93954.00
2023-04-02T06:27:15.107Z,93952.00
2023-04-02T06:28:15.107Z,93952.00
2023-04-02T06:29:15.109Z,93950.00
2023-04-02T06:30:15.081Z,93952.00
2023-04-02T06:31:15.090Z,93952.00
2023-04-02T06:32:15.066Z,93952.00
2023-04-02T06:33:15.080Z,93958.00
2023-04-02T06:34:15.079Z,93956.00
2023-04-02T06:35:15.043Z,93958.00
2023-04-02T06:36:15.061Z,93958.00
2023-04-02T06:37:15.046Z,93958.00
2023-04-02T06:38:15.048Z,93960.00
2023-04-02T06:39:15.093Z,93962.00
2023-04-02T06:40:15.161Z,93962.00
2023-04-02T06:41:15.230Z,93964.00
2023-04-02T06:42:15.302Z,93964.00
2023-04-02T06:43:15.339Z,93965.00
2023-04-02T06:44:15.425Z,93967.00
2023-04-02T06:45:15.489Z,93967.00
2023-04-02T06:46:15.675Z,93969.00
2023-04-02T06:47:15.579Z,93969.00
2023-04-02T06:48:15.635Z,93971.00
2023-04-02T06:49:15.709Z,93971.00
2023-04-02T06:50:15.766Z,93971.00
2023-04-02T06:51:15.837Z,93975.00
2023-04-02T06:52:15.880Z,93975.00
2023-04-02T06:53:15.948Z,93975.00
2023-04-02T06:54:16.026Z,93975.00
2023-04-02T06:55:16.043Z,93977.00
2023-04-02T06:56:16.067Z,93979.00
2023-04-02T06:57:16.137Z,93981.00
2023-04-02T06:58:16.154Z,93981.00
2023-04-02T06:59:16.176Z,93979.00
2023-04-02T07:00:16.216Z,93977.00
2023-04-02T07:01:16.282Z,93977.00
2023-04-02T07:02:16.320Z,93975.00
2023-04-02T07:03:16.321Z,93973.00
2023-04-02T07:04:16.386Z,93973.00
2023-04-02T07:05:16.351Z,93977.00
2023-04-02T07:06:16.398Z,93977.00
2023-04-02T07:07:16.403Z,93977.00
2023-04-02T07:08:16.431Z,93977.00
2023-04-02T07:09:16.461Z,93979.00
2023-04-02T07:10:16.480Z,93975.00
2023-04-02T07:11:17.686Z,93979.00
2023-04-02T07:12:16.497Z,93975.00
2023-04-02T07:13:16.508Z,93977.00
2023-04-02T07:14:16.545Z,93975.00
2023-04-02T07:15:16.527Z,93973.00
2023-04-02T07:16:16.559Z,93971.00
2023-04-02T07:17:16.541Z,93973.00
2023-04-02T07:18:16.526Z,93973.00
2023-04-02T07:19:16.542Z,93973.00
2023-04-02T07:20:16.510Z,93971.00
2023-04-02T07:21:16.523Z,93975.00
2023-04-02T07:22:16.540Z,93969.00
2023-04-02T07:23:17.143Z,93973.00
2023-04-02T07:24:16.601Z,93973.00
2023-04-02T07:25:16.603Z,93971.00
2023-04-02T07:26:16.621Z,93969.00
2023-04-02T07:27:16.678Z,93969.00
2023-04-02T07:28:16.666Z,93969.00
2023-04-02T07:29:16.728Z,93967.00
2023-04-02T07:30:16.693Z,93969.00
2023-04-02T07:31:16.819Z,93969.00
2023-04-02T07:32:16.772Z,93973.00
2023-04-02T07:33:16.839Z,93971.00
2023-04-02T07:34:16.918Z,93971.00
2023-04-02T07:35:16.971Z,93969.00
2023-04-02T07:36:17.048Z,93971.00
2023-04-02T07:37:17.066Z,93967.00
2023-04-02T07:38:17.129Z,93967.00
2023-04-02T07:39:17.195Z,93971.00
2023-04-02T07:40:17.243Z,93969.00
2023-04-02T07:41:17.292Z,93971.00
2023-04-02T07:42:17.355Z,93971.00
2023-04-02T07:43:17.420Z,93971.00
2023-04-02T07:44:17.499Z,93975.00
2023-04-02T07:45:17.547Z,93973.00
2023-04-02T07:46:17.645Z,93977.00
2023-04-02T07:47:17.665Z,93979.00
2023-04-02T07:48:17.729Z,93979.00
2023-04-02T07:49:17.799Z,93975.00
2023-04-02T07:50:17.853Z,93977.00
2023-04-02T07:51:17.892Z,93975.00
2023-04-02T07:52:17.948Z,93979.00
2023-04-02T07:53:18.009Z,93977.00
2023-04-02T07:54:18.067Z,93975.00
2023-04-02T07:55:18.085Z,93979.00
2023-04-02T07:56:18.141Z,93979.00
2023-04-02T07:57:18.229Z,93975.00
2023-04-02T07:58:18.206Z,93979.00
2023-04-02T07:59:18.248Z,93979.00
2023-04-02T08:00:18.288Z,93979.00
2023-04-02T08:01:18.323Z,93975.00
2023-04-02T08:02:18.434Z,93977.00
2023-04-02T08:03:18.473Z,93977.00
2023-04-02T08:04:18.504Z,93975.00
2023-04-02T08:05:18.474Z,93979.00
2023-04-02T08:06:18.521Z,93973.00
2023-04-02T08:07:18.540Z,93977.00
2023-04-02T08:08:18.615Z,93975.00
2023-04-02T08:09:18.606Z,93977.00
2023-04-02T08:10:18.628Z,93979.00
2023-04-02T08:11:18.651Z,93977.00
2023-04-02T08:12:18.683Z,93977.00
2023-04-02T08:13:18.717Z,93977.00
2023-04-02T08:14:18.743Z,93975.00
2023-04-02T08:15:18.756Z,93977.00
2023-04-02T08:16:18.823Z,93981.00
2023-04-02T08:17:18.795Z,93981.00
2023-04-02T08:18:18.808Z,93979.00
2023-04-02T08:19:18.857Z,93981.00
2023-04-02T08:20:18.877Z,93979.00
2023-04-02T08:21:18.892Z,93979.00
2023-04-02T08:22:18.934Z,93979.00
2023-04-02T08:23:18.911Z,93977.00
2023-04-02T08:24:18.941Z,93977.00
2023-04-02T08:25:18.968Z,93973.00
2023-04-02T08:26:18.987Z,93977.00
2023-04-02T08:27:18.965Z,93979.00
2023-04-02T08:28:19.000Z,93977.00
2023-04-02T08:29:18.998Z,93975.00
2023-04-02T08:30:19.015Z,93975.00
2023-04-02T08:31:19.073Z,93973.00
2023-04-02T08:32:19.028Z,93973.00
2023-04-02T08:33:19.041Z,93973.00
2023-04-02T08:34:19.046Z,93973.00
2023-04-02T08:35:19.085Z,93973.00
2023-04-02T08:36:19.071Z,93971.00
2023-04-02T08:37:19.054Z,93971.00
2023-04-02T08:38:19.113Z,93975.00
2023-04-02T08:39:19.091Z,93975.00
2023-04-02T08:40:19.117Z,93973.00
2023-04-02T08:41:19.110Z,93969.00
2023-04-02T08:42:19.089Z,93969.00
2023-04-02T08:43:19.113Z,93969.00
2023-04-02T08:44:19.125Z,93969.00
2023-04-02T08:46:19.238Z,93965.00
2023-04-02T08:47:19.145Z,93965.00
2023-04-02T08:48:19.177Z,93964.00
2023-04-02T08:49:19.171Z,93964.00
2023-04-02T08:50:19.167Z,93964.00
2023-04-02T08:51:19.183Z,93964.00
2023-04-02T08:52:19.181Z,93962.00
2023-04-02T08:53:19.202Z,93967.00
2023-04-02T08:54:19.210Z,93962.00
2023-04-02T08:55:19.205Z,93960.00
2023-04-02T08:56:19.209Z,93962.00
2023-04-02T08:57:19.406Z,93964.00
2023-04-02T08:58:19.238Z,93962.00
2023-04-02T08:59:19.229Z,93964.00
2023-04-02T09:00:19.259Z,93962.00
2023-04-02T09:01:19.279Z,93962.00
2023-04-02T09:02:19.279Z,93960.00
2023-04-02T09:03:19.289Z,93964.00
2023-04-02T09:04:19.334Z,93965.00
2023-04-02T09:05:19.305Z,93964.00
2023-04-02T09:06:19.295Z,93965.00
2023-04-02T09:07:19.311Z,93967.00
2023-04-02T09:08:19.304Z,93967.00
2023-04-02T09:09:19.312Z,93964.00
2023-04-02T09:10:19.325Z,93967.00
2023-04-02T09:11:19.322Z,93969.00
2023-04-02T09:12:19.325Z,93969.00
2023-04-02T09:13:19.317Z,93969.00
2023-04-02T09:14:19.335Z,93971.00
2023-04-02T09:15:19.336Z,93969.00
2023-04-02T09:16:19.381Z,93969.00
2023-04-02T09:17:19.325Z,93969.00
2023-04-02T09:18:19.375Z,93969.00
2023-04-02T09:19:19.357Z,93967.00
2023-04-02T09:20:19.331Z,93971.00
2023-04-02T09:21:19.332Z,93969.00
2023-04-02T09:22:19.357Z,93969.00
2023-04-02T09:23:19.359Z,93969.00
2023-04-02T09:24:19.360Z,93969.00
2023-04-02T09:25:19.372Z,93969.00
2023-04-02T09:26:19.366Z,93969.00
2023-04-02T09:27:19.396Z,93967.00
2023-04-02T09:28:19.380Z,93973.00
2023-04-02T09:29:19.415Z,93971.00
2023-04-02T09:30:19.461Z,93969.00
2023-04-02T09:31:19.460Z,93971.00
2023-04-02T09:32:19.490Z,93975.00
2023-04-02T09:33:19.473Z,93973.00
2023-04-02T09:34:19.783Z,93973.00
2023-04-02T09:35:26.234Z,93975.00
2023-04-02T09:36:20.485Z,93973.00
2023-04-02T09:37:19.449Z,93975.00
2023-04-02T09:38:19.454Z,93975.00
2023-04-02T09:39:19.442Z,93975.00
2023-04-02T09:40:19.434Z,93977.00
2023-04-02T09:41:19.437Z,93975.00
2023-04-02T09:42:19.430Z,93979.00
2023-04-02T09:43:19.415Z,93977.00
2023-04-02T09:44:19.478Z,93975.00
2023-04-02T09:45:19.409Z,93977.00
2023-04-02T09:46:19.442Z,93973.00
2023-04-02T09:47:19.408Z,93979.00
2023-04-02T09:48:19.391Z,93973.00
2023-04-02T09:49:19.421Z,93975.00
2023-04-02T09:50:19.381Z,93975.00
2023-04-02T09:51:19.372Z,93973.00
2023-04-02T09:52:19.394Z,93973.00
2023-04-02T09:53:19.363Z,93971.00
2023-04-02T09:54:19.375Z,93971.00
2023-04-02T09:55:19.352Z,93975.00
2023-04-02T09:56:19.338Z,93977.00
2023-04-02T09:57:19.395Z,93977.00
2023-04-02T09:58:19.324Z,93977.00
2023-04-02T09:59:19.348Z,93977.00
2023-04-02T10:00:30.752Z,93979.00
2023-04-02T10:01:20.431Z,93977.00
2023-04-02T10:02:19.351Z,93983.00
2023-04-02T10:03:19.341Z,93977.00
2023-04-02T10:04:19.395Z,93977.00
2023-04-02T10:05:26.720Z,93979.00
2023-04-02T10:06:20.324Z,93977.00
2023-04-02T10:07:19.315Z,93979.00
2023-04-02T10:08:19.337Z,93979.00
2023-04-02T10:09:19.306Z,93979.00
2023-04-02T10:10:19.314Z,93977.00
2023-04-02T10:11:19.301Z,93979.00
2023-04-02T10:12:19.300Z,93979.00
2023-04-02T10:13:19.295Z,93977.00
2023-04-02T10:14:19.306Z,93977.00
2023-04-02T10:15:19.272Z,93977.00
2023-04-02T10:16:19.339Z,93973.00
2023-04-02T10:17:19.299Z,93975.00
2023-04-02T10:18:19.331Z,93977.00
2023-04-02T10:19:20.085Z,93975.00
2023-04-02T10:20:19.437Z,93977.00
2023-04-02T10:21:19.481Z,93975.00
2023-04-02T10:22:19.509Z,93975.00
2023-04-02T10:23:19.586Z,93977.00
2023-04-02T10:24:19.598Z,93975.00
2023-04-02T10:25:19.659Z,93975.00
2023-04-02T10:26:19.700Z,93977.00
2023-04-02T10:27:19.760Z,93975.00
2023-04-02T10:28:19.816Z,93975.00
2023-04-02T10:29:19.858Z,93977.00
2023-04-02T10:30:19.912Z,93975.00
2023-04-02T10:31:19.994Z,93975.00
2023-04-02T10:32:19.988Z,93975.00
2023-04-02T10:33:20.066Z,93973.00
2023-04-02T10:34:20.083Z,93969.00
2023-04-02T10:35:20.143Z,93971.00
2023-04-02T10:36:20.190Z,93973.00
2023-04-02T10:37:20.221Z,93973.00
2023-04-02T10:38:20.268Z,93971.00
2023-04-02T10:39:20.332Z,93971.00
2023-04-02T10:40:20.356Z,93971.00
2023-04-02T10:41:20.402Z,93967.00
2023-04-02T10:42:20.462Z,93969.00
2023-04-02T10:43:20.538Z,93971.00
2023-04-02T10:44:20.976Z,93969.00
2023-04-02T10:45:20.589Z,93969.00
2023-04-02T10:46:22.331Z,93969.00
2023-04-02T10:47:20.619Z,93969.00
2023-04-02T10:48:20.637Z,93975.00
2023-04-02T10:49:20.680Z,93973.00
2023-04-02T10:50:20.637Z,93977.00
2023-04-02T10:51:20.608Z,93979.00
2023-04-02T10:52:20.618Z,93977.00
2023-04-02T10:53:20.592Z,93977.00
2023-04-02T10:54:20.601Z,93977.00
2023-04-02T10:55:20.584Z,93979.00
2023-04-02T10:56:20.582Z,93981.00
2023-04-02T10:57:20.634Z,93983.00
2023-04-02T10:58:20.555Z,93983.00
2023-04-02T10:59:20.555Z,93983.00
2023-04-02T11:00:20.576Z,93987.00
2023-04-02T11:01:20.596Z,93987.00
2023-04-02T11:02:20.551Z,93987.00
2023-04-02T11:03:20.587Z,93991.00
2023-04-02T11:04:20.537Z,93991.00
2023-04-02T11:05:20.519Z,93991.00
2023-04-02T11:06:20.512Z,93993.00
2023-04-02T11:07:20.527Z,93991.00
2023-04-02T11:08:20.524Z,93995.00
2023-04-02T11:09:20.482Z,93993.00
2023-04-02T11:10:20.516Z,93991.00
2023-04-02T11:11:20.470Z,93993.00
2023-04-02T11:12:20.483Z,93991.00
2023-04-02T11:13:20.462Z,93995.00
2023-04-02T11:14:20.461Z,93989.00
2023-04-02T11:15:20.478Z,93991.00
2023-04-02T11:16:20.502Z,93989.00
2023-04-02T11:17:20.522Z,93993.00
2023-04-02T11:18:20.436Z,93993.00
2023-04-02T11:19:20.427Z,93995.00
2023-04-02T11:20:20.453Z,93995.00
2023-04-02T11:21:20.421Z,93997.00
2023-04-02T11:22:20.430Z,93997.00
2023-04-02T11:23:20.411Z,93999.00
2023-04-02T11:24:20.400Z,93997.00
2023-04-02T11:25:20.392Z,93999.00
2023-04-02T11:26:20.392Z,93999.00
2023-04-02T11:27:20.386Z,94003.00
2023-04-02T11:28:20.372Z,94001.00
2023-04-02T11:29:20.423Z,94005.00
2023-04-02T11:30:20.493Z,94003.00
2023-04-02T11:31:20.605Z,94007.00
2023-04-02T11:32:20.624Z,94005.00
2023-04-02T11:33:26.517Z,94007.00
2023-04-02T11:34:21.671Z,94009.00
2023-04-02T11:35:20.675Z,94013.00
2023-04-02T11:36:20.673Z,94015.00
2023-04-02T11:37:20.647Z,94017.00
2023-04-02T11:38:20.662Z,94017.00
2023-04-02T11:39:20.639Z,94022.00
2023-04-02T11:40:20.627Z,94019.00
2023-04-02T11:41:20.636Z,94019.00
2023-04-02T11:42:20.671Z,94020.00
2023-04-02T11:43:20.732Z,94022.00
2023-04-02T11:44:20.764Z,94026.00
2023-04-02T11:45:21.153Z,94032.00